RYR385 LPPT-LPMA
Flight info
| Callsign | RYR385 |
|---|---|
| Flight time | 1h 50m |
| Altitude | 37000 |
| Route | ULVOT DCT GALPA DCT RAKUN |
| Aircraft | B38M/M-SDE1FGHILORVWXY/HB1 |
Departure
| Time | 2026-05-05 19:03 |
|---|---|
| Airport | Lisbon Humberto Delgado Airport (LPPT) |
Arrival
| Time | 2026-05-05 20:54 |
|---|---|
| Airport | Cristiano Ronaldo International Airport (LPMA) |
| Time | Latitude | Longitude | Altitude | Speed | Heading |
|---|---|---|---|---|---|
| 2026-05-05 18:44 | 38.76460 | -9.13708 | 349 ft | 0 kts | 168° |
| 2026-05-05 18:54 | 38.76483 | -9.13714 | 355 ft | 4 kts | 168° |
| 2026-05-05 18:54 | 38.76507 | -9.13721 | 352 ft | 2 kts | 168° |
| 2026-05-05 18:55 | 38.76529 | -9.13724 | 351 ft | 4 kts | 199° |
| 2026-05-05 18:55 | 38.76545 | -9.13706 | 357 ft | 3 kts | 258° |
| 2026-05-05 18:55 | 38.76547 | -9.13688 | 354 ft | 0 kts | 258° |
| 2026-05-05 18:58 | 38.76544 | -9.13706 | 357 ft | 4 kts | 258° |
| 2026-05-05 18:58 | 38.76535 | -9.13762 | 350 ft | 9 kts | 258° |
| 2026-05-05 18:59 | 38.76519 | -9.13861 | 348 ft | 14 kts | 258° |
| 2026-05-05 18:59 | 38.76530 | -9.13929 | 358 ft | 4 kts | 331° |
| 2026-05-05 18:59 | 38.76558 | -9.13946 | 353 ft | 6 kts | 319° |
| 2026-05-05 18:59 | 38.76560 | -9.14008 | 350 ft | 8 kts | 238° |
| 2026-05-05 19:00 | 38.76518 | -9.14073 | 348 ft | 11 kts | 233° |
| 2026-05-05 19:00 | 38.76499 | -9.14188 | 352 ft | 16 kts | 284° |
| 2026-05-05 19:00 | 38.76535 | -9.14298 | 335 ft | 8 kts | 293° |
| 2026-05-05 19:00 | 38.76538 | -9.14307 | 336 ft | 0 kts | 293° |
| 2026-05-05 19:01 | 38.76542 | -9.14319 | 335 ft | 3 kts | 293° |
| 2026-05-05 19:01 | 38.76554 | -9.14356 | 335 ft | 6 kts | 293° |
| 2026-05-05 19:01 | 38.76581 | -9.14403 | 333 ft | 4 kts | 334° |
| 2026-05-05 19:01 | 38.76605 | -9.14409 | 335 ft | 3 kts | 356° |
| 2026-05-05 19:02 | 38.76623 | -9.14404 | 332 ft | 3 kts | 25° |
| 2026-05-05 19:02 | 38.76668 | -9.14378 | 335 ft | 20 kts | 23° |
| 2026-05-05 19:02 | 38.77038 | -9.14180 | 353 ft | 94 kts | 22° |
| 2026-05-05 19:02 | 38.77843 | -9.13748 | 365 ft | 153 kts | 22° |
| 2026-05-05 19:03 | 38.78934 | -9.13150 | 654 ft | 181 kts | 18° |
| 2026-05-05 19:03 | 38.80111 | -9.12489 | 1359 ft | 182 kts | 20° |
| 2026-05-05 19:03 | 38.81227 | -9.11863 | 1917 ft | 172 kts | 20° |
| 2026-05-05 19:03 | 38.82274 | -9.11253 | 2368 ft | 161 kts | 21° |
| 2026-05-05 19:04 | 38.83274 | -9.10579 | 2628 ft | 162 kts | 24° |
| 2026-05-05 19:04 | 38.84248 | -9.09878 | 2887 ft | 160 kts | 24° |
| 2026-05-05 19:04 | 38.85217 | -9.09146 | 2996 ft | 166 kts | 25° |
| 2026-05-05 19:04 | 38.86207 | -9.08274 | 2998 ft | 181 kts | 37° |
| 2026-05-05 19:05 | 38.86938 | -9.06854 | 2972 ft | 208 kts | 65° |
| 2026-05-05 19:05 | 38.87104 | -9.04929 | 3051 ft | 226 kts | 89° |
| 2026-05-05 19:05 | 38.86688 | -9.02779 | 2820 ft | 270 kts | 108° |
| 2026-05-05 19:05 | 38.85923 | -9.00511 | 3228 ft | 280 kts | 110° |
| 2026-05-05 19:06 | 38.84975 | -8.98315 | 3745 ft | 289 kts | 132° |
| 2026-05-05 19:06 | 38.83269 | -8.97019 | 4315 ft | 295 kts | 167° |
| 2026-05-05 19:06 | 38.81271 | -8.97208 | 4924 ft | 290 kts | 210° |
| 2026-05-05 19:06 | 38.79455 | -8.98319 | 5555 ft | 291 kts | 206° |
| 2026-05-05 19:07 | 38.77600 | -8.99343 | 6239 ft | 290 kts | 204° |
| 2026-05-05 19:07 | 38.75715 | -9.00324 | 6853 ft | 291 kts | 205° |
| 2026-05-05 19:07 | 38.73850 | -9.01322 | 7454 ft | 293 kts | 205° |
| 2026-05-05 19:07 | 38.71961 | -9.02336 | 8068 ft | 295 kts | 205° |
| 2026-05-05 19:08 | 38.70057 | -9.03357 | 8696 ft | 296 kts | 205° |
| 2026-05-05 19:08 | 38.68159 | -9.04373 | 9349 ft | 297 kts | 205° |
| 2026-05-05 19:08 | 38.66239 | -9.05399 | 9975 ft | 300 kts | 205° |
| 2026-05-05 19:08 | 38.64304 | -9.06434 | 10494 ft | 305 kts | 206° |
| 2026-05-05 19:09 | 38.62332 | -9.07491 | 10834 ft | 317 kts | 206° |
| 2026-05-05 19:09 | 38.60255 | -9.08601 | 11098 ft | 331 kts | 205° |
| 2026-05-05 19:09 | 38.58094 | -9.09752 | 11499 ft | 341 kts | 205° |
| 2026-05-05 19:09 | 38.55888 | -9.10926 | 12007 ft | 347 kts | 206° |
| 2026-05-05 19:10 | 38.53645 | -9.12122 | 12542 ft | 351 kts | 205° |
| 2026-05-05 19:10 | 38.51375 | -9.13337 | 13136 ft | 354 kts | 205° |
| 2026-05-05 19:10 | 38.49093 | -9.14539 | 13764 ft | 357 kts | 206° |
| 2026-05-05 19:10 | 38.46792 | -9.15766 | 14331 ft | 360 kts | 206° |
| 2026-05-05 19:11 | 38.44470 | -9.17005 | 14911 ft | 363 kts | 206° |
| 2026-05-05 19:11 | 38.42157 | -9.18310 | 15505 ft | 363 kts | 213° |
| 2026-05-05 19:11 | 38.40102 | -9.20162 | 16073 ft | 362 kts | 220° |
| 2026-05-05 19:11 | 38.38104 | -9.22133 | 16650 ft | 364 kts | 221° |
| 2026-05-05 19:12 | 38.36120 | -9.24099 | 17221 ft | 366 kts | 221° |
| 2026-05-05 19:12 | 38.34088 | -9.26077 | 17774 ft | 369 kts | 220° |
| 2026-05-05 19:12 | 38.32033 | -9.28063 | 18342 ft | 371 kts | 220° |
| 2026-05-05 19:12 | 38.29975 | -9.30065 | 18828 ft | 374 kts | 220° |
| 2026-05-05 19:13 | 38.27905 | -9.32086 | 19296 ft | 376 kts | 220° |
| 2026-05-05 19:13 | 38.25822 | -9.34112 | 19786 ft | 378 kts | 220° |
| 2026-05-05 19:13 | 38.23720 | -9.36151 | 20271 ft | 380 kts | 220° |
| 2026-05-05 19:13 | 38.21616 | -9.38192 | 20747 ft | 382 kts | 220° |
| 2026-05-05 19:14 | 38.19499 | -9.40246 | 21215 ft | 383 kts | 220° |
| 2026-05-05 19:14 | 38.17370 | -9.42310 | 21687 ft | 385 kts | 220° |
| 2026-05-05 19:14 | 38.15231 | -9.44380 | 22142 ft | 387 kts | 220° |
| 2026-05-05 19:14 | 38.13081 | -9.46460 | 22594 ft | 390 kts | 220° |
| 2026-05-05 19:15 | 38.10942 | -9.48529 | 23034 ft | 392 kts | 220° |
| 2026-05-05 19:15 | 38.08766 | -9.50631 | 23459 ft | 394 kts | 220° |
| 2026-05-05 19:15 | 38.06576 | -9.52746 | 23862 ft | 396 kts | 220° |
| 2026-05-05 19:15 | 38.04371 | -9.54873 | 24233 ft | 398 kts | 220° |
| 2026-05-05 19:16 | 38.02159 | -9.57005 | 24612 ft | 400 kts | 220° |
| 2026-05-05 19:16 | 37.99946 | -9.59147 | 24979 ft | 400 kts | 222° |
| 2026-05-05 19:16 | 37.97812 | -9.61429 | 25366 ft | 401 kts | 223° |
| 2026-05-05 19:16 | 37.95685 | -9.63702 | 25742 ft | 402 kts | 223° |
| 2026-05-05 19:17 | 37.93540 | -9.65982 | 26129 ft | 403 kts | 223° |
| 2026-05-05 19:17 | 37.91395 | -9.68267 | 26494 ft | 403 kts | 224° |
| 2026-05-05 19:17 | 37.89268 | -9.70538 | 26888 ft | 404 kts | 224° |
| 2026-05-05 19:17 | 37.87108 | -9.72839 | 27265 ft | 405 kts | 224° |
| 2026-05-05 19:18 | 37.84949 | -9.75135 | 27639 ft | 406 kts | 224° |
| 2026-05-05 19:18 | 37.82786 | -9.77432 | 28009 ft | 406 kts | 224° |
| 2026-05-05 19:18 | 37.80625 | -9.79729 | 28373 ft | 407 kts | 224° |
| 2026-05-05 19:18 | 37.78448 | -9.82040 | 28732 ft | 408 kts | 224° |
| 2026-05-05 19:19 | 37.76274 | -9.84346 | 29072 ft | 409 kts | 224° |
| 2026-05-05 19:19 | 37.74114 | -9.86634 | 29289 ft | 410 kts | 224° |
| 2026-05-05 19:19 | 37.71920 | -9.88957 | 29746 ft | 411 kts | 224° |
| 2026-05-05 19:19 | 37.69729 | -9.91275 | 30078 ft | 412 kts | 224° |
| 2026-05-05 19:20 | 37.67521 | -9.93609 | 30371 ft | 413 kts | 224° |
| 2026-05-05 19:20 | 37.65320 | -9.95934 | 30632 ft | 414 kts | 224° |
| 2026-05-05 19:20 | 37.63120 | -9.98290 | 30890 ft | 414 kts | 227° |
| 2026-05-05 19:20 | 37.61181 | -10.00949 | 31150 ft | 411 kts | 234° |
| 2026-05-05 19:21 | 37.59389 | -10.03787 | 31402 ft | 413 kts | 234° |
| 2026-05-05 19:21 | 37.57590 | -10.06620 | 31639 ft | 414 kts | 234° |
| 2026-05-05 19:21 | 37.55804 | -10.09423 | 31867 ft | 416 kts | 234° |
| 2026-05-05 19:21 | 37.53988 | -10.12277 | 32101 ft | 418 kts | 234° |
| 2026-05-05 19:22 | 37.52164 | -10.15147 | 32329 ft | 419 kts | 234° |
| 2026-05-05 19:22 | 37.50333 | -10.18023 | 32551 ft | 420 kts | 234° |
| 2026-05-05 19:22 | 37.48506 | -10.20887 | 32853 ft | 420 kts | 234° |
| 2026-05-05 19:22 | 37.46671 | -10.23759 | 33147 ft | 420 kts | 234° |
| 2026-05-05 19:23 | 37.44842 | -10.26625 | 33440 ft | 420 kts | 234° |
| 2026-05-05 19:23 | 37.43009 | -10.29493 | 33739 ft | 420 kts | 234° |
| 2026-05-05 19:23 | 37.41194 | -10.32329 | 34030 ft | 420 kts | 234° |
| 2026-05-05 19:23 | 37.39356 | -10.35200 | 34291 ft | 419 kts | 234° |
| 2026-05-05 19:24 | 37.37527 | -10.38053 | 34544 ft | 419 kts | 234° |
| 2026-05-05 19:24 | 37.36319 | -10.39937 | 34703 ft | 419 kts | 234° |
| 2026-05-05 19:24 | 37.34482 | -10.42800 | 34966 ft | 419 kts | 234° |
| 2026-05-05 19:24 | 37.32649 | -10.45653 | 35211 ft | 419 kts | 234° |
| 2026-05-05 19:25 | 37.30819 | -10.48499 | 35463 ft | 419 kts | 234° |
| 2026-05-05 19:25 | 37.28985 | -10.51350 | 35719 ft | 419 kts | 233° |
| 2026-05-05 19:25 | 37.27150 | -10.54199 | 35966 ft | 419 kts | 233° |
| 2026-05-05 19:25 | 37.25309 | -10.57055 | 36205 ft | 420 kts | 233° |
| 2026-05-05 19:26 | 37.23474 | -10.59899 | 36417 ft | 420 kts | 233° |
| 2026-05-05 19:26 | 37.21635 | -10.62746 | 36633 ft | 420 kts | 233° |
| 2026-05-05 19:26 | 37.19792 | -10.65599 | 36838 ft | 421 kts | 233° |
| 2026-05-05 19:26 | 37.17943 | -10.68457 | 37031 ft | 422 kts | 233° |
| 2026-05-05 19:27 | 37.14262 | -10.74141 | 37110 ft | 419 kts | 233° |
| 2026-05-05 19:27 | 37.10593 | -10.79797 | 37108 ft | 417 kts | 233° |
| 2026-05-05 19:28 | 37.06932 | -10.85431 | 37111 ft | 417 kts | 233° |
| 2026-05-05 19:28 | 37.03260 | -10.91072 | 37114 ft | 417 kts | 233° |
| 2026-05-05 19:29 | 36.99588 | -10.96703 | 37117 ft | 418 kts | 233° |
| 2026-05-05 19:29 | 36.95903 | -11.02345 | 37099 ft | 418 kts | 233° |
| 2026-05-05 19:30 | 36.92243 | -11.07939 | 37122 ft | 418 kts | 233° |
| 2026-05-05 19:30 | 36.88557 | -11.13563 | 37122 ft | 418 kts | 233° |
| 2026-05-05 19:31 | 36.84866 | -11.19186 | 37129 ft | 418 kts | 233° |
| 2026-05-05 19:31 | 36.81174 | -11.24801 | 37130 ft | 418 kts | 233° |
| 2026-05-05 19:32 | 36.77498 | -11.30381 | 37131 ft | 418 kts | 233° |
| 2026-05-05 19:32 | 36.73795 | -11.35994 | 37128 ft | 419 kts | 233° |
| 2026-05-05 19:33 | 36.70085 | -11.41607 | 37132 ft | 420 kts | 233° |
| 2026-05-05 19:33 | 36.66375 | -11.47212 | 37129 ft | 420 kts | 233° |
| 2026-05-05 19:34 | 36.62649 | -11.52831 | 37133 ft | 419 kts | 233° |
| 2026-05-05 19:35 | 36.57067 | -11.61232 | 37135 ft | 420 kts | 233° |
| 2026-05-05 19:35 | 36.53370 | -11.66784 | 37133 ft | 420 kts | 233° |
| 2026-05-05 19:36 | 36.49639 | -11.72378 | 37132 ft | 420 kts | 232° |
| 2026-05-05 19:36 | 36.45906 | -11.77965 | 37138 ft | 420 kts | 232° |
| 2026-05-05 19:37 | 36.42167 | -11.83552 | 37139 ft | 420 kts | 232° |
| 2026-05-05 19:37 | 36.38458 | -11.89086 | 37137 ft | 419 kts | 233° |
| 2026-05-05 19:38 | 36.34720 | -11.94652 | 37136 ft | 419 kts | 233° |
| 2026-05-05 19:38 | 36.30980 | -12.00213 | 37136 ft | 419 kts | 232° |
| 2026-05-05 19:39 | 36.27236 | -12.05772 | 37136 ft | 419 kts | 232° |
| 2026-05-05 19:39 | 36.23505 | -12.11301 | 37135 ft | 420 kts | 232° |
| 2026-05-05 19:40 | 36.19728 | -12.16890 | 37139 ft | 420 kts | 232° |
| 2026-05-05 19:40 | 36.15975 | -12.22435 | 37144 ft | 420 kts | 232° |
| 2026-05-05 19:41 | 36.12232 | -12.27954 | 37140 ft | 420 kts | 232° |
| 2026-05-05 19:41 | 36.08477 | -12.33483 | 37141 ft | 420 kts | 232° |
| 2026-05-05 19:42 | 36.04711 | -12.39019 | 37137 ft | 420 kts | 232° |
| 2026-05-05 19:42 | 36.00946 | -12.44544 | 37136 ft | 420 kts | 232° |
| 2026-05-05 19:43 | 35.97193 | -12.50043 | 37135 ft | 420 kts | 232° |
| 2026-05-05 19:43 | 35.93424 | -12.55560 | 37137 ft | 420 kts | 232° |
| 2026-05-05 19:44 | 35.89641 | -12.61078 | 37138 ft | 420 kts | 232° |
| 2026-05-05 19:44 | 35.85859 | -12.66598 | 37138 ft | 421 kts | 232° |
| 2026-05-05 19:45 | 35.82078 | -12.72099 | 37126 ft | 421 kts | 232° |
| 2026-05-05 19:45 | 35.78297 | -12.77596 | 37135 ft | 420 kts | 232° |
| 2026-05-05 19:46 | 35.74531 | -12.83060 | 37140 ft | 421 kts | 232° |
| 2026-05-05 19:46 | 35.70746 | -12.88543 | 37140 ft | 421 kts | 232° |
| 2026-05-05 19:47 | 35.66952 | -12.94032 | 37139 ft | 421 kts | 232° |
| 2026-05-05 19:47 | 35.63153 | -12.99518 | 37140 ft | 421 kts | 232° |
| 2026-05-05 19:48 | 35.59356 | -13.04992 | 37141 ft | 421 kts | 232° |
| 2026-05-05 19:48 | 35.55560 | -13.10456 | 37144 ft | 421 kts | 232° |
| 2026-05-05 19:49 | 35.51775 | -13.15895 | 37127 ft | 421 kts | 232° |
| 2026-05-05 19:49 | 35.47969 | -13.21356 | 37142 ft | 420 kts | 232° |
| 2026-05-05 19:50 | 35.44167 | -13.26804 | 37139 ft | 420 kts | 232° |
| 2026-05-05 19:50 | 35.40364 | -13.32243 | 37139 ft | 420 kts | 232° |
| 2026-05-05 19:51 | 35.36555 | -13.37682 | 37146 ft | 420 kts | 232° |
| 2026-05-05 19:51 | 35.32742 | -13.43119 | 37149 ft | 420 kts | 232° |
| 2026-05-05 19:52 | 35.28952 | -13.48521 | 37144 ft | 420 kts | 232° |
| 2026-05-05 19:52 | 35.25133 | -13.53934 | 37139 ft | 420 kts | 232° |
| 2026-05-05 19:53 | 35.21322 | -13.59355 | 37146 ft | 420 kts | 232° |
| 2026-05-05 19:53 | 35.17499 | -13.64765 | 37141 ft | 420 kts | 232° |
| 2026-05-05 19:54 | 35.13671 | -13.70183 | 37141 ft | 420 kts | 232° |
| 2026-05-05 19:54 | 35.09848 | -13.75581 | 37142 ft | 420 kts | 232° |
| 2026-05-05 19:55 | 35.06013 | -13.80989 | 37141 ft | 420 kts | 232° |
| 2026-05-05 19:55 | 35.02209 | -13.86345 | 37147 ft | 420 kts | 232° |
| 2026-05-05 19:56 | 34.98362 | -13.91753 | 37151 ft | 421 kts | 232° |
| 2026-05-05 19:56 | 34.94521 | -13.97146 | 37151 ft | 421 kts | 231° |
| 2026-05-05 19:57 | 34.90679 | -14.02529 | 37150 ft | 421 kts | 231° |
| 2026-05-05 19:57 | 34.86836 | -14.07907 | 37153 ft | 420 kts | 231° |
| 2026-05-05 19:58 | 34.83016 | -14.13243 | 37148 ft | 420 kts | 231° |
| 2026-05-05 19:58 | 34.79179 | -14.18596 | 37147 ft | 420 kts | 231° |
| 2026-05-05 19:59 | 34.75336 | -14.23949 | 37156 ft | 421 kts | 231° |
| 2026-05-05 19:59 | 34.71472 | -14.29322 | 37159 ft | 421 kts | 231° |
| 2026-05-05 20:00 | 34.67617 | -14.34674 | 37151 ft | 421 kts | 231° |
| 2026-05-05 20:00 | 34.63753 | -14.40032 | 37128 ft | 421 kts | 231° |
| 2026-05-05 20:01 | 34.59916 | -14.45344 | 37147 ft | 420 kts | 231° |
| 2026-05-05 20:01 | 34.56054 | -14.50681 | 37146 ft | 420 kts | 231° |
| 2026-05-05 20:02 | 34.52191 | -14.56012 | 37145 ft | 420 kts | 231° |
| 2026-05-05 20:02 | 34.48326 | -14.61338 | 37139 ft | 420 kts | 231° |
| 2026-05-05 20:03 | 34.44465 | -14.66649 | 37140 ft | 420 kts | 231° |
| 2026-05-05 20:03 | 34.40615 | -14.71939 | 37136 ft | 420 kts | 231° |
| 2026-05-05 20:04 | 34.36598 | -14.77106 | 37143 ft | 421 kts | 229° |
| 2026-05-05 20:04 | 34.32556 | -14.82236 | 37146 ft | 421 kts | 229° |
| 2026-05-05 20:05 | 34.28495 | -14.87364 | 37146 ft | 421 kts | 229° |
| 2026-05-05 20:05 | 34.24468 | -14.92450 | 37146 ft | 421 kts | 229° |
| 2026-05-05 20:06 | 34.20411 | -14.97563 | 37138 ft | 421 kts | 229° |
| 2026-05-05 20:06 | 34.16355 | -15.02667 | 37138 ft | 421 kts | 229° |
| 2026-05-05 20:07 | 34.12295 | -15.07770 | 37136 ft | 421 kts | 229° |
| 2026-05-05 20:07 | 34.08225 | -15.12877 | 37136 ft | 421 kts | 229° |
| 2026-05-05 20:08 | 34.04158 | -15.17973 | 37119 ft | 422 kts | 229° |
| 2026-05-05 20:08 | 34.00122 | -15.23021 | 37131 ft | 418 kts | 229° |
| 2026-05-05 20:09 | 33.96086 | -15.28064 | 37120 ft | 418 kts | 229° |
| 2026-05-05 20:09 | 33.92050 | -15.33098 | 37110 ft | 414 kts | 229° |
| 2026-05-05 20:09 | 33.90054 | -15.35584 | 36743 ft | 411 kts | 229° |
| 2026-05-05 20:10 | 33.88072 | -15.38054 | 36202 ft | 410 kts | 229° |
| 2026-05-05 20:10 | 33.86093 | -15.40517 | 35664 ft | 409 kts | 229° |
| 2026-05-05 20:10 | 33.84120 | -15.42970 | 35134 ft | 407 kts | 229° |
| 2026-05-05 20:10 | 33.82146 | -15.45422 | 34579 ft | 406 kts | 229° |
| 2026-05-05 20:11 | 33.80186 | -15.47857 | 34011 ft | 405 kts | 229° |
| 2026-05-05 20:11 | 33.78229 | -15.50285 | 33419 ft | 403 kts | 229° |
| 2026-05-05 20:11 | 33.76284 | -15.52697 | 32843 ft | 401 kts | 229° |
| 2026-05-05 20:11 | 33.74363 | -15.55077 | 32278 ft | 401 kts | 228° |
| 2026-05-05 20:12 | 33.73057 | -15.56694 | 31882 ft | 399 kts | 228° |
| 2026-05-05 20:12 | 33.70506 | -15.59851 | 31119 ft | 397 kts | 228° |
| 2026-05-05 20:12 | 33.68583 | -15.62229 | 30544 ft | 395 kts | 228° |
| 2026-05-05 20:12 | 33.66669 | -15.64595 | 29929 ft | 394 kts | 227° |
| 2026-05-05 20:13 | 33.65401 | -15.66161 | 29560 ft | 392 kts | 227° |
| 2026-05-05 20:13 | 33.63511 | -15.68493 | 28996 ft | 389 kts | 228° |
| 2026-05-05 20:13 | 33.61629 | -15.70814 | 28430 ft | 386 kts | 228° |
| 2026-05-05 20:13 | 33.59757 | -15.73123 | 27875 ft | 384 kts | 228° |
| 2026-05-05 20:14 | 33.57901 | -15.75409 | 27321 ft | 382 kts | 228° |
| 2026-05-05 20:14 | 33.56050 | -15.77687 | 26779 ft | 380 kts | 228° |
| 2026-05-05 20:14 | 33.54159 | -15.79901 | 26221 ft | 378 kts | 226° |
| 2026-05-05 20:14 | 33.52291 | -15.82104 | 25681 ft | 376 kts | 227° |
| 2026-05-05 20:15 | 33.50432 | -15.84312 | 25141 ft | 375 kts | 227° |
| 2026-05-05 20:15 | 33.48568 | -15.86498 | 24597 ft | 374 kts | 227° |
| 2026-05-05 20:15 | 33.46702 | -15.88672 | 24062 ft | 374 kts | 227° |
| 2026-05-05 20:15 | 33.44841 | -15.90848 | 23501 ft | 373 kts | 227° |
| 2026-05-05 20:16 | 33.42996 | -15.93012 | 22940 ft | 370 kts | 227° |
| 2026-05-05 20:16 | 33.41163 | -15.95158 | 22414 ft | 367 kts | 227° |
| 2026-05-05 20:16 | 33.39364 | -15.97259 | 21898 ft | 364 kts | 227° |
| 2026-05-05 20:16 | 33.37554 | -15.99372 | 21361 ft | 362 kts | 227° |
| 2026-05-05 20:17 | 33.35759 | -16.01468 | 20870 ft | 360 kts | 227° |
| 2026-05-05 20:17 | 33.33966 | -16.03561 | 20345 ft | 359 kts | 227° |
| 2026-05-05 20:17 | 33.32186 | -16.05636 | 19846 ft | 357 kts | 227° |
| 2026-05-05 20:17 | 33.30405 | -16.07711 | 19321 ft | 356 kts | 227° |
| 2026-05-05 20:18 | 33.28636 | -16.09771 | 18823 ft | 355 kts | 227° |
| 2026-05-05 20:18 | 33.26868 | -16.11830 | 18300 ft | 355 kts | 226° |
| 2026-05-05 20:18 | 33.25102 | -16.13883 | 17775 ft | 353 kts | 226° |
| 2026-05-05 20:18 | 33.23345 | -16.15926 | 17272 ft | 350 kts | 226° |
| 2026-05-05 20:19 | 33.21600 | -16.17953 | 16781 ft | 348 kts | 227° |
| 2026-05-05 20:19 | 33.19877 | -16.19953 | 16294 ft | 346 kts | 226° |
| 2026-05-05 20:19 | 33.18172 | -16.21932 | 15803 ft | 344 kts | 226° |
| 2026-05-05 20:19 | 33.16455 | -16.23923 | 15330 ft | 343 kts | 227° |
| 2026-05-05 20:20 | 33.14747 | -16.25903 | 14845 ft | 341 kts | 226° |
| 2026-05-05 20:20 | 33.13048 | -16.27872 | 14369 ft | 340 kts | 226° |
| 2026-05-05 20:20 | 33.11349 | -16.29838 | 13876 ft | 339 kts | 226° |
| 2026-05-05 20:20 | 33.09651 | -16.31803 | 13287 ft | 340 kts | 227° |
| 2026-05-05 20:21 | 33.07960 | -16.33760 | 12778 ft | 338 kts | 226° |
| 2026-05-05 20:21 | 33.06303 | -16.35674 | 12298 ft | 318 kts | 226° |
| 2026-05-05 20:21 | 33.04786 | -16.37423 | 11851 ft | 293 kts | 226° |
| 2026-05-05 20:21 | 33.03355 | -16.39077 | 11363 ft | 284 kts | 226° |
| 2026-05-05 20:22 | 33.01931 | -16.40725 | 10843 ft | 286 kts | 226° |
| 2026-05-05 20:22 | 33.00518 | -16.42355 | 10192 ft | 278 kts | 225° |
| 2026-05-05 20:22 | 32.99146 | -16.43936 | 9527 ft | 271 kts | 225° |
| 2026-05-05 20:22 | 32.97801 | -16.45478 | 8844 ft | 265 kts | 224° |
| 2026-05-05 20:23 | 32.96382 | -16.46825 | 8183 ft | 257 kts | 224° |
| 2026-05-05 20:23 | 32.95163 | -16.48345 | 7622 ft | 248 kts | 229° |
| 2026-05-05 20:23 | 32.94019 | -16.49850 | 7089 ft | 244 kts | 227° |
| 2026-05-05 20:23 | 32.92845 | -16.51223 | 6547 ft | 236 kts | 221° |
| 2026-05-05 20:24 | 32.91618 | -16.52433 | 5927 ft | 220 kts | 222° |
| 2026-05-05 20:24 | 32.90521 | -16.53647 | 5296 ft | 212 kts | 223° |
| 2026-05-05 20:24 | 32.89433 | -16.54845 | 4670 ft | 212 kts | 221° |
| 2026-05-05 20:24 | 32.88340 | -16.56011 | 4020 ft | 215 kts | 220° |
| 2026-05-05 20:25 | 32.87162 | -16.57260 | 3446 ft | 230 kts | 220° |
| 2026-05-05 20:25 | 32.85993 | -16.58507 | 3045 ft | 221 kts | 221° |
| 2026-05-05 20:25 | 32.84754 | -16.59495 | 3019 ft | 216 kts | 200° |
| 2026-05-05 20:25 | 32.83383 | -16.60208 | 3012 ft | 211 kts | 199° |
| 2026-05-05 20:26 | 32.82017 | -16.60905 | 3003 ft | 206 kts | 199° |
| 2026-05-05 20:26 | 32.80758 | -16.61563 | 3000 ft | 199 kts | 199° |
| 2026-05-05 20:26 | 32.79483 | -16.62229 | 3000 ft | 200 kts | 200° |
| 2026-05-05 20:26 | 32.78214 | -16.62892 | 3002 ft | 197 kts | 199° |
| 2026-05-05 20:27 | 32.76961 | -16.63547 | 3003 ft | 198 kts | 200° |
| 2026-05-05 20:27 | 32.75688 | -16.64210 | 2938 ft | 201 kts | 201° |
| 2026-05-05 20:27 | 32.74439 | -16.64865 | 2748 ft | 192 kts | 200° |
| 2026-05-05 20:27 | 32.73230 | -16.65496 | 2547 ft | 184 kts | 199° |
| 2026-05-05 20:28 | 32.72085 | -16.66093 | 2367 ft | 180 kts | 199° |
| 2026-05-05 20:28 | 32.70939 | -16.66690 | 2179 ft | 178 kts | 198° |
| 2026-05-05 20:28 | 32.69818 | -16.67273 | 2017 ft | 177 kts | 199° |
| 2026-05-05 20:28 | 32.68685 | -16.67863 | 2022 ft | 178 kts | 199° |
| 2026-05-05 20:29 | 32.67554 | -16.68451 | 2020 ft | 180 kts | 200° |
| 2026-05-05 20:29 | 32.66415 | -16.69046 | 2019 ft | 177 kts | 198° |
| 2026-05-05 20:29 | 32.65289 | -16.69629 | 2016 ft | 176 kts | 198° |
| 2026-05-05 20:29 | 32.64143 | -16.70186 | 1843 ft | 177 kts | 192° |
| 2026-05-05 20:30 | 32.63021 | -16.70835 | 1617 ft | 180 kts | 213° |
| 2026-05-05 20:30 | 32.62130 | -16.71765 | 1339 ft | 171 kts | 228° |
| 2026-05-05 20:30 | 32.61430 | -16.72941 | 1069 ft | 176 kts | 243° |
| 2026-05-05 20:30 | 32.60993 | -16.74262 | 816 ft | 167 kts | 261° |
| 2026-05-05 20:31 | 32.60832 | -16.75584 | 848 ft | 161 kts | 272° |
| 2026-05-05 20:31 | 32.60930 | -16.76884 | 1008 ft | 161 kts | 290° |
| 2026-05-05 20:31 | 32.61401 | -16.78084 | 967 ft | 160 kts | 308° |
| 2026-05-05 20:31 | 32.62081 | -16.79120 | 795 ft | 157 kts | 317° |
| 2026-05-05 20:32 | 32.62842 | -16.80026 | 598 ft | 152 kts | 323° |
| 2026-05-05 20:32 | 32.63643 | -16.80839 | 593 ft | 151 kts | 333° |
| 2026-05-05 20:32 | 32.64628 | -16.81094 | 689 ft | 142 kts | 12° |
| 2026-05-05 20:32 | 32.65554 | -16.80757 | 663 ft | 143 kts | 24° |
| 2026-05-05 20:33 | 32.66486 | -16.80400 | 603 ft | 140 kts | 18° |
| 2026-05-05 20:33 | 32.67388 | -16.80007 | 550 ft | 132 kts | 27° |
| 2026-05-05 20:33 | 32.68129 | -16.79375 | 411 ft | 133 kts | 41° |
| 2026-05-05 20:33 | 32.68791 | -16.78612 | 266 ft | 134 kts | 40° |
| 2026-05-05 20:34 | 32.69438 | -16.77852 | 194 ft | 123 kts | 43° |
| 2026-05-05 20:34 | 32.70012 | -16.77170 | 320 ft | 118 kts | 43° |
| 2026-05-05 20:34 | 32.70520 | -16.76363 | 772 ft | 125 kts | 60° |
| 2026-05-05 20:34 | 32.70779 | -16.75372 | 1193 ft | 137 kts | 78° |
| 2026-05-05 20:35 | 32.70794 | -16.74172 | 1545 ft | 153 kts | 94° |
| 2026-05-05 20:35 | 32.70290 | -16.72889 | 1737 ft | 197 kts | 129° |
| 2026-05-05 20:35 | 32.69041 | -16.72182 | 2684 ft | 197 kts | 169° |
| 2026-05-05 20:35 | 32.67579 | -16.72123 | 3066 ft | 230 kts | 172° |
| 2026-05-05 20:36 | 32.65969 | -16.72438 | 3801 ft | 236 kts | 199° |
| 2026-05-05 20:36 | 32.64448 | -16.73391 | 4025 ft | 257 kts | 207° |
| 2026-05-05 20:36 | 32.62923 | -16.74439 | 3789 ft | 249 kts | 211° |
| 2026-05-05 20:36 | 32.61427 | -16.75494 | 3529 ft | 252 kts | 206° |
| 2026-05-05 20:37 | 32.59867 | -16.76351 | 3307 ft | 242 kts | 199° |
| 2026-05-05 20:37 | 32.58251 | -16.77111 | 3340 ft | 253 kts | 199° |
| 2026-05-05 20:37 | 32.56673 | -16.77825 | 3319 ft | 245 kts | 198° |
| 2026-05-05 20:37 | 32.55058 | -16.78526 | 3286 ft | 247 kts | 197° |
| 2026-05-05 20:38 | 32.53436 | -16.79201 | 3241 ft | 249 kts | 195° |
| 2026-05-05 20:38 | 32.51791 | -16.79857 | 3180 ft | 248 kts | 193° |
| 2026-05-05 20:38 | 32.50124 | -16.80491 | 3122 ft | 248 kts | 193° |
| 2026-05-05 20:38 | 32.48473 | -16.81068 | 3045 ft | 251 kts | 188° |
| 2026-05-05 20:39 | 32.46835 | -16.80793 | 2983 ft | 231 kts | 147° |
| 2026-05-05 20:39 | 32.46028 | -16.79333 | 2896 ft | 217 kts | 63° |
| 2026-05-05 20:39 | 32.47239 | -16.78505 | 2979 ft | 206 kts | 32° |
| 2026-05-05 20:39 | 32.48121 | -16.77166 | 3017 ft | 205 kts | 60° |
| 2026-05-05 20:40 | 32.49011 | -16.75831 | 3002 ft | 213 kts | 41° |
| 2026-05-05 20:40 | 32.50287 | -16.74901 | 3000 ft | 213 kts | 28° |
| 2026-05-05 20:40 | 32.51613 | -16.74175 | 2999 ft | 209 kts | 27° |
| 2026-05-05 20:40 | 32.52957 | -16.73483 | 3000 ft | 214 kts | 26° |
| 2026-05-05 20:41 | 32.54305 | -16.72777 | 3021 ft | 214 kts | 26° |
| 2026-05-05 20:41 | 32.55653 | -16.72067 | 2998 ft | 209 kts | 26° |
| 2026-05-05 20:41 | 32.56987 | -16.71357 | 3015 ft | 213 kts | 26° |
| 2026-05-05 20:41 | 32.58334 | -16.70635 | 3013 ft | 216 kts | 26° |
| 2026-05-05 20:42 | 32.59682 | -16.69860 | 3016 ft | 215 kts | 30° |
| 2026-05-05 20:42 | 32.61002 | -16.69007 | 3017 ft | 218 kts | 31° |
| 2026-05-05 20:42 | 32.62346 | -16.68146 | 3018 ft | 221 kts | 31° |
| 2026-05-05 20:42 | 32.63690 | -16.67281 | 3013 ft | 216 kts | 31° |
| 2026-05-05 20:43 | 32.65030 | -16.66434 | 3016 ft | 219 kts | 31° |
| 2026-05-05 20:43 | 32.66384 | -16.65588 | 3017 ft | 220 kts | 31° |
| 2026-05-05 20:43 | 32.67725 | -16.64733 | 3014 ft | 218 kts | 31° |
| 2026-05-05 20:43 | 32.69072 | -16.63875 | 3017 ft | 220 kts | 31° |
| 2026-05-05 20:44 | 32.70401 | -16.63033 | 3017 ft | 219 kts | 31° |
| 2026-05-05 20:44 | 32.71771 | -16.62160 | 3014 ft | 222 kts | 31° |
| 2026-05-05 20:44 | 32.73101 | -16.61299 | 3011 ft | 218 kts | 31° |
| 2026-05-05 20:44 | 32.74441 | -16.60433 | 3015 ft | 223 kts | 31° |
| 2026-05-05 20:45 | 32.77123 | -16.58710 | 3011 ft | 217 kts | 31° |
| 2026-05-05 20:45 | 32.78481 | -16.57964 | 2998 ft | 220 kts | 14° |
| 2026-05-05 20:45 | 32.79945 | -16.58271 | 2984 ft | 214 kts | 333° |
| 2026-05-05 20:46 | 32.80849 | -16.59673 | 2813 ft | 223 kts | 289° |
| 2026-05-05 20:46 | 32.80731 | -16.61486 | 2653 ft | 226 kts | 244° |
| 2026-05-05 20:46 | 32.79737 | -16.62929 | 2434 ft | 226 kts | 219° |
| 2026-05-05 20:46 | 32.78397 | -16.63819 | 2167 ft | 219 kts | 189° |
| 2026-05-05 20:47 | 32.76920 | -16.64015 | 2014 ft | 213 kts | 180° |
| 2026-05-05 20:47 | 32.75460 | -16.64309 | 2019 ft | 221 kts | 193° |
| 2026-05-05 20:47 | 32.74012 | -16.64998 | 2015 ft | 223 kts | 202° |
| 2026-05-05 20:47 | 32.72639 | -16.65790 | 2019 ft | 220 kts | 202° |
| 2026-05-05 20:48 | 32.71245 | -16.66544 | 2003 ft | 213 kts | 200° |
| 2026-05-05 20:48 | 32.69918 | -16.67229 | 1995 ft | 205 kts | 200° |
| 2026-05-05 20:48 | 32.68609 | -16.67902 | 1721 ft | 203 kts | 200° |
| 2026-05-05 20:48 | 32.67328 | -16.68570 | 1446 ft | 200 kts | 201° |
| 2026-05-05 20:49 | 32.66043 | -16.69240 | 1183 ft | 201 kts | 200° |
| 2026-05-05 20:49 | 32.64797 | -16.69893 | 1007 ft | 187 kts | 200° |
| 2026-05-05 20:49 | 32.63588 | -16.70421 | 998 ft | 192 kts | 204° |
| 2026-05-05 20:49 | 32.62532 | -16.71298 | 1002 ft | 179 kts | 220° |
| 2026-05-05 20:50 | 32.61733 | -16.72369 | 1006 ft | 172 kts | 237° |
| 2026-05-05 20:50 | 32.61325 | -16.73201 | 1000 ft | 173 kts | 247° |
| 2026-05-05 20:50 | 32.60879 | -16.74972 | 999 ft | 165 kts | 266° |
| 2026-05-05 20:50 | 32.60853 | -16.76316 | 1008 ft | 163 kts | 279° |
| 2026-05-05 20:51 | 32.61078 | -16.77622 | 1007 ft | 161 kts | 293° |
| 2026-05-05 20:51 | 32.61558 | -16.78799 | 971 ft | 157 kts | 308° |
| 2026-05-05 20:51 | 32.62269 | -16.79729 | 977 ft | 154 kts | 328° |
| 2026-05-05 20:51 | 32.63195 | -16.80288 | 863 ft | 145 kts | 349° |
| 2026-05-05 20:52 | 32.64165 | -16.80433 | 684 ft | 138 kts | 1° |
| 2026-05-05 20:52 | 32.65120 | -16.80408 | 683 ft | 138 kts | 6° |
| 2026-05-05 20:52 | 32.66086 | -16.80329 | 647 ft | 141 kts | 6° |
| 2026-05-05 20:52 | 32.67067 | -16.80125 | 511 ft | 148 kts | 20° |
| 2026-05-05 20:53 | 32.67975 | -16.79595 | 522 ft | 145 kts | 36° |
| 2026-05-05 20:53 | 32.68662 | -16.78736 | 329 ft | 139 kts | 42° |
| 2026-05-05 20:53 | 32.69318 | -16.77993 | 203 ft | 120 kts | 43° |
| 2026-05-05 20:53 | 32.69860 | -16.77364 | 177 ft | 93 kts | 44° |
| 2026-05-05 20:54 | 32.70168 | -16.77006 | 177 ft | 36 kts | 44° |
| 2026-05-05 20:54 | 32.70296 | -16.76853 | 177 ft | 20 kts | 41° |
| 2026-05-05 20:54 | 32.70390 | -16.76809 | 177 ft | 10 kts | 32° |
| 2026-05-05 20:54 | 32.70398 | -16.76769 | 177 ft | 3 kts | 119° |
| 2026-05-05 20:55 | 32.70388 | -16.76762 | 177 ft | 0 kts | 160° |
| 2026-05-05 20:55 | 32.70386 | -16.76762 | 177 ft | 0 kts | 173° |
| 2026-05-05 20:55 | 32.70367 | -16.76773 | 177 ft | 6 kts | 210° |
| 2026-05-05 20:55 | 32.70314 | -16.76832 | 177 ft | 15 kts | 224° |
| 2026-05-05 20:56 | 32.70253 | -16.76903 | 177 ft | 21 kts | 224° |
| 2026-05-05 20:56 | 32.70083 | -16.77103 | 177 ft | 29 kts | 225° |
| 2026-05-05 20:56 | 32.69942 | -16.77188 | 177 ft | 18 kts | 165° |
| 2026-05-05 20:56 | 32.69861 | -16.77174 | 177 ft | 11 kts | 199° |
| 2026-05-05 20:57 | 32.69792 | -16.77236 | 177 ft | 15 kts | 225° |
| 2026-05-05 20:57 | 32.69711 | -16.77335 | 177 ft | 19 kts | 226° |
| 2026-05-05 20:57 | 32.69619 | -16.77450 | 177 ft | 19 kts | 226° |
| 2026-05-05 20:57 | 32.69533 | -16.77556 | 177 ft | 17 kts | 226° |
| 2026-05-05 20:58 | 32.69478 | -16.77625 | 177 ft | 17 kts | 226° |
| 2026-05-05 20:58 | 32.69413 | -16.77703 | 177 ft | 3 kts | 209° |
| 2026-05-05 20:58 | 32.69400 | -16.77702 | 177 ft | 1 kts | 168° |
| 2026-05-05 20:58 | 32.69396 | -16.77700 | 177 ft | 3 kts | 156° |
| 2026-05-05 20:59 | 32.69376 | -16.77681 | 177 ft | 5 kts | 139° |
| 2026-05-05 20:59 | 32.69362 | -16.77668 | 177 ft | 0 kts | 139° |
| 2026-05-05 20:59 | 32.69361 | -16.77667 | 177 ft | 0 kts | 139° |
| 2026-05-05 20:59 | 32.69360 | -16.77666 | 177 ft | 0 kts | 139° |